Time;durP1;ratioP1;P1;durP2;ratioP2;P2;SDS_P1;SDS_P2;PMS_P1;PMS_P2;Temp;Humidity;BMP_temperature;BMP_pressure;BME280_temperature;BME280_humidity;BME280_pressure;Samples;Min_cycle;Max_cycle;Signal;HPM_P1;HPM_P2
2021/03/31 00:02:03;;;;;;;6.10;2.67;;;12.70;99.90;;;;;;5092949;28;20169;-69
2021/03/31 00:04:29;;;;;;;10.17;3.00;;;12.60;99.90;;;;;;5093092;28;20548;-68
2021/03/31 00:06:54;;;;;;;5.13;2.50;;;12.70;99.90;;;;;;5092790;28;20443;-68
2021/03/31 00:09:20;;;;;;;5.93;2.90;;;12.60;99.90;;;;;;5092620;28;20188;-68
2021/03/31 00:11:45;;;;;;;4.30;3.03;;;12.70;99.90;;;;;;5092751;28;20197;-68
2021/03/31 00:14:13;;;;;;;3.93;2.60;;;12.80;99.90;;;;;;5092750;28;20226;-68
2021/03/31 00:16:39;;;;;;;5.73;3.30;;;12.80;99.90;;;;;;5092639;28;20737;-69
2021/03/31 00:19:05;;;;;;;4.97;2.60;;;12.70;99.90;;;;;;5092723;28;20489;-69
2021/03/31 00:21:30;;;;;;;7.40;4.10;;;12.70;99.90;;;;;;5092652;28;20171;-69
2021/03/31 00:23:56;;;;;;;6.47;2.67;;;12.80;99.90;;;;;;5091294;28;20194;-68
2021/03/31 00:26:21;;;;;;;5.10;2.97;;;12.90;99.90;;;;;;5092880;28;20176;-69
2021/03/31 00:28:47;;;;;;;7.23;3.17;;;12.80;99.90;;;;;;5095306;28;20197;-68
2021/03/31 00:31:13;;;;;;;5.47;2.70;;;12.90;99.90;;;;;;5096817;28;20583;-69
2021/03/31 00:33:38;;;;;;;4.10;2.50;;;12.90;99.90;;;;;;5096589;28;20196;-69
2021/03/31 00:36:05;;;;;;;5.50;3.30;;;12.90;99.90;;;;;;5096559;28;20192;-68
2021/03/31 00:38:31;;;;;;;3.57;3.00;;;12.80;99.90;;;;;;5096216;28;20166;-68
2021/03/31 00:40:57;;;;;;;8.27;4.27;;;12.80;99.90;;;;;;5096200;28;20403;-68
2021/03/31 00:43:23;;;;;;;12.53;5.03;;;13.00;99.90;;;;;;5096350;28;20199;-68
2021/03/31 00:45:50;;;;;;;5.80;2.70;;;12.90;99.90;;;;;;5096117;28;20170;-69
2021/03/31 00:48:16;;;;;;;6.50;3.30;;;12.90;99.90;;;;;;5096115;28;20404;-68
2021/03/31 00:50:50;;;;;;;9.00;3.30;;;12.90;99.90;;;;;;5096375;28;20544;-68
2021/03/31 00:53:21;;;;;;;7.80;3.87;;;13.00;99.90;;;;;;5096031;28;20429;-68
2021/03/31 00:55:46;;;;;;;9.57;3.47;;;12.90;99.90;;;;;;5095988;28;20394;-69
2021/03/31 00:58:13;;;;;;;5.67;3.70;;;12.90;99.90;;;;;;5096523;28;20890;-68
2021/03/31 01:00:38;;;;;;;5.93;4.10;;;12.80;99.90;;;;;;5095989;28;20532;-68
2021/03/31 01:03:04;;;;;;;6.17;3.03;;;12.80;99.90;;;;;;5095816;28;20434;-69
2021/03/31 01:05:31;;;;;;;6.13;2.80;;;12.80;99.90;;;;;;5096326;28;20184;-69
2021/03/31 01:07:57;;;;;;;8.77;3.07;;;12.90;99.90;;;;;;5096336;28;20220;-68
2021/03/31 01:10:27;;;;;;;7.70;3.47;;;12.80;99.90;;;;;;5096292;28;20401;-68
2021/03/31 01:13:19;;;;;;;5.53;3.10;;;12.80;99.90;;;;;;5095653;28;20520;-69
2021/03/31 01:15:50;;;;;;;4.63;3.00;;;12.90;99.90;;;;;;5094314;28;20414;-68
2021/03/31 01:18:44;;;;;;;9.73;3.20;;;12.90;99.90;;;;;;5095634;28;20387;-68
2021/03/31 01:21:53;;;;;;;5.50;3.87;;;12.80;99.90;;;;;;5095602;28;20442;-68
2021/03/31 01:24:40;;;;;;;3.90;2.93;;;12.70;99.90;;;;;;5032135;28;20412;-69
2021/03/31 01:27:17;;;;;;;7.37;2.90;;;12.70;99.90;;;;;;5094182;28;20406;-68
2021/03/31 01:30:04;;;;;;;5.60;3.10;;;12.80;99.90;;;;;;5095366;28;20481;-68
2021/03/31 01:32:54;;;;;;;10.10;3.13;;;12.70;99.90;;;;;;5095563;28;20533;-69
2021/03/31 01:35:21;;;;;;;7.17;3.53;;;12.60;99.90;;;;;;5095589;28;20388;-68
2021/03/31 01:37:54;;;;;;;6.70;3.37;;;12.60;99.90;;;;;;5095160;28;20459;-68
2021/03/31 01:40:23;;;;;;;4.63;3.70;;;12.70;99.90;;;;;;5094453;28;20744;-69
2021/03/31 01:43:00;;;;;;;6.47;3.30;;;12.60;99.90;;;;;;5094978;28;20421;-69
2021/03/31 01:45:31;;;;;;;5.97;3.60;;;12.50;99.90;;;;;;5095374;28;20484;-69
2021/03/31 01:48:01;;;;;;;6.23;3.10;;;12.60;99.90;;;;;;5094996;28;20459;-68
2021/03/31 01:50:29;;;;;;;4.53;3.53;;;12.60;99.90;;;;;;5094945;28;20783;-68
2021/03/31 01:52:55;;;;;;;5.70;3.03;;;12.60;99.90;;;;;;5094901;28;20429;-68
2021/03/31 01:55:22;;;;;;;14.10;3.60;;;12.40;99.90;;;;;;5095378;28;20408;-68
2021/03/31 01:57:49;;;;;;;5.60;3.13;;;12.30;99.90;;;;;;5095043;28;20277;-68
2021/03/31 02:00:18;;;;;;;5.33;3.80;;;12.00;99.90;;;;;;5094767;28;20536;-68
2021/03/31 02:02:47;;;;;;;5.90;3.23;;;11.90;99.90;;;;;;5094637;28;20419;-69
2021/03/31 02:05:14;;;;;;;5.23;2.90;;;11.90;99.90;;;;;;5094656;28;20492;-68
2021/03/31 02:07:40;;;;;;;10.60;3.53;;;11.80;99.90;;;;;;5094470;28;20509;-68
2021/03/31 02:10:11;;;;;;;8.50;3.70;;;11.80;99.90;;;;;;5094892;28;20398;-68
2021/03/31 02:12:39;;;;;;;7.80;3.53;;;11.70;99.90;;;;;;5094357;28;20927;-68
2021/03/31 02:15:07;;;;;;;10.43;3.63;;;11.40;99.90;;;;;;5094540;28;20410;-68
2021/03/31 02:17:34;;;;;;;9.43;4.50;;;11.40;99.90;;;;;;5094172;28;20453;-68
2021/03/31 02:20:01;;;;;;;71.60;50.80;;;11.40;99.90;;;;;;5094301;28;20402;-69
2021/03/31 02:22:28;;;;;;;7.63;4.50;;;11.30;99.90;;;;;;5094098;28;20820;-68
2021/03/31 02:24:54;;;;;;;10.43;3.20;;;11.50;99.90;;;;;;5094354;28;20437;-69
2021/03/31 02:27:20;;;;;;;4.90;3.30;;;11.60;99.90;;;;;;5094292;28;20466;-69
2021/03/31 02:29:49;;;;;;;21.23;14.07;;;11.90;99.90;;;;;;5093997;28;20413;-69
2021/03/31 02:32:17;;;;;;;10.80;7.33;;;11.70;99.90;;;;;;5093730;28;20532;-69
2021/03/31 02:34:44;;;;;;;9.07;5.10;;;11.70;99.90;;;;;;5093780;28;20412;-69
2021/03/31 02:37:12;;;;;;;12.70;3.90;;;11.70;99.90;;;;;;5094033;28;20453;-68
2021/03/31 02:39:40;;;;;;;12.17;3.87;;;11.50;99.90;;;;;;5093839;28;20405;-69
2021/03/31 02:42:09;;;;;;;6.33;3.40;;;11.50;99.90;;;;;;5093700;28;20401;-68
2021/03/31 02:44:40;;;;;;;5.60;3.17;;;11.50;99.90;;;;;;5094040;28;20416;-68
2021/03/31 02:47:07;;;;;;;4.13;2.70;;;11.40;99.90;;;;;;5094026;28;20399;-70
2021/03/31 02:49:33;;;;;;;7.90;2.97;;;11.40;99.90;;;;;;5093709;28;20416;-70
2021/03/31 02:52:00;;;;;;;9.13;3.40;;;11.50;99.90;;;;;;5093488;28;20405;-69
2021/03/31 02:54:27;;;;;;;8.73;3.60;;;11.40;99.90;;;;;;5093882;28;20417;-69
2021/03/31 02:56:53;;;;;;;8.47;3.67;;;11.40;99.90;;;;;;5092097;28;20546;-69
2021/03/31 02:59:19;;;;;;;5.00;3.57;;;11.40;99.90;;;;;;5094038;28;20410;-70
2021/03/31 03:01:45;;;;;;;16.00;4.40;;;11.30;99.90;;;;;;5093452;28;20409;-67
2021/03/31 03:04:11;;;;;;;7.17;3.70;;;11.20;99.90;;;;;;5093368;28;20217;-69
2021/03/31 03:06:37;;;;;;;14.10;4.33;;;11.20;99.90;;;;;;5093336;28;20418;-69
2021/03/31 03:09:05;;;;;;;5.60;3.53;;;11.20;99.90;;;;;;5093677;28;20787;-69
2021/03/31 03:11:32;;;;;;;9.10;3.90;;;11.20;99.90;;;;;;5093559;28;20497;-69
2021/03/31 03:14:00;;;;;;;9.50;3.30;;;11.20;99.90;;;;;;5093184;28;20477;-69
2021/03/31 03:16:26;;;;;;;5.60;3.00;;;11.20;99.90;;;;;;5093661;28;20498;-69
2021/03/31 03:18:51;;;;;;;3.93;3.53;;;11.20;99.90;;;;;;5093446;28;20883;-70
2021/03/31 03:21:19;;;;;;;4.47;3.33;;;11.10;99.90;;;;;;5093380;28;20528;-69
2021/03/31 03:23:46;;;;;;;5.57;4.07;;;11.00;99.90;;;;;;5093077;28;20214;-70
2021/03/31 03:26:14;;;;;;;4.77;3.03;;;11.00;99.90;;;;;;5093331;28;20401;-69
2021/03/31 03:28:42;;;;;;;4.87;3.03;;;11.10;99.90;;;;;;5093290;28;20488;-69
2021/03/31 03:31:08;;;;;;;9.77;3.90;;;11.00;99.90;;;;;;5092965;28;20410;-69
2021/03/31 03:33:34;;;;;;;7.37;3.93;;;10.90;99.90;;;;;;5093143;28;20425;-69
2021/03/31 03:36:03;;;;;;;8.13;3.83;;;11.00;99.90;;;;;;5092768;28;20772;-69
2021/03/31 03:38:29;;;;;;;6.87;3.00;;;10.90;99.90;;;;;;5092933;28;20402;-69
2021/03/31 03:40:54;;;;;;;4.97;3.00;;;10.90;99.90;;;;;;5093206;28;20412;-70
2021/03/31 03:43:20;;;;;;;5.57;3.00;;;11.00;99.90;;;;;;5092814;28;20183;-69
2021/03/31 03:45:47;;;;;;;7.00;3.53;;;11.00;99.90;;;;;;5093055;28;20168;-69
2021/03/31 03:48:12;;;;;;;4.03;3.10;;;11.20;99.90;;;;;;5092945;28;20167;-69
2021/03/31 03:50:38;;;;;;;4.00;2.30;;;11.20;99.90;;;;;;5092764;28;20432;-70
2021/03/31 03:53:04;;;;;;;6.67;2.80;;;11.30;99.90;;;;;;5092991;28;20179;-69
2021/03/31 03:55:33;;;;;;;8.90;3.70;;;11.10;99.90;;;;;;5092625;28;20397;-69
2021/03/31 03:58:07;;;;;;;8.97;3.97;;;11.10;99.90;;;;;;5092567;28;21015;-70
2021/03/31 04:00:33;;;;;;;8.53;3.30;;;11.00;99.90;;;;;;5092993;28;20438;-69
2021/03/31 04:02:59;;;;;;;5.50;3.40;;;11.00;99.90;;;;;;5094443;28;20429;-69
2021/03/31 04:05:25;;;;;;;10.73;3.60;;;11.10;99.90;;;;;;5097122;28;20164;-69
2021/03/31 04:07:51;;;;;;;12.40;3.30;;;11.20;99.90;;;;;;5096703;28;20490;-69
2021/03/31 04:10:18;;;;;;;7.70;3.30;;;11.20;99.90;;;;;;5097485;28;20442;-69
2021/03/31 04:12:45;;;;;;;8.27;3.97;;;11.20;99.90;;;;;;5096636;28;20474;-69
2021/03/31 04:15:12;;;;;;;11.90;4.23;;;11.00;99.90;;;;;;5096524;28;20368;-70
2021/03/31 04:17:40;;;;;;;6.73;4.00;;;10.70;99.90;;;;;;5096796;28;20871;-69
2021/03/31 04:20:11;;;;;;;9.93;3.80;;;10.80;99.90;;;;;;5096818;28;20954;-69
2021/03/31 04:22:37;;;;;;;9.20;3.60;;;10.80;99.90;;;;;;5096730;28;20421;-70
2021/03/31 04:25:04;;;;;;;11.03;3.90;;;10.60;99.90;;;;;;5096393;28;20763;-70
2021/03/31 04:27:30;;;;;;;5.20;3.57;;;10.50;99.90;;;;;;5096406;28;20732;-69
2021/03/31 04:29:56;;;;;;;6.03;3.77;;;10.60;99.90;;;;;;5096294;28;20408;-69
2021/03/31 04:32:25;;;;;;;6.87;4.17;;;10.60;99.90;;;;;;5096254;28;20828;-70
2021/03/31 04:34:51;;;;;;;8.77;3.67;;;10.60;99.90;;;;;;5096822;28;20409;-69
2021/03/31 04:37:17;;;;;;;5.00;3.27;;;10.60;99.90;;;;;;5096375;28;20451;-69
2021/03/31 04:39:43;;;;;;;10.20;3.67;;;10.60;99.90;;;;;;5096189;28;20402;-69
2021/03/31 04:42:09;;;;;;;13.03;4.37;;;10.60;99.90;;;;;;5096097;28;20186;-69
2021/03/31 04:44:35;;;;;;;6.60;3.17;;;10.70;99.90;;;;;;5096408;28;20402;-69
2021/03/31 04:47:01;;;;;;;50.63;5.17;;;10.60;99.90;;;;;;5096048;28;20420;-69
2021/03/31 04:49:27;;;;;;;7.90;3.17;;;10.50;99.90;;;;;;5095936;28;20644;-69
2021/03/31 04:51:53;;;;;;;4.90;3.30;;;10.30;99.90;;;;;;5096173;28;20496;-68
2021/03/31 04:54:18;;;;;;;16.73;4.10;;;10.30;99.90;;;;;;5096049;28;20205;-69
2021/03/31 04:56:44;;;;;;;8.57;4.10;;;10.20;99.90;;;;;;5095994;28;20195;-68
2021/03/31 04:59:09;;;;;;;12.30;4.87;;;10.20;99.90;;;;;;5095732;28;20505;-68
2021/03/31 05:01:35;;;;;;;13.37;4.53;;;10.20;99.90;;;;;;5095747;28;20532;-68
2021/03/31 05:04:00;;;;;;;9.30;4.53;;;10.10;99.90;;;;;;5095749;28;20236;-68
2021/03/31 05:06:26;;;;;;;7.80;3.80;;;10.20;99.90;;;;;;5094401;28;20689;-68
2021/03/31 05:08:51;;;;;;;9.57;4.43;;;10.30;99.90;;;;;;5095423;28;20198;-68
2021/03/31 05:11:17;;;;;;;7.07;3.30;;;10.30;99.90;;;;;;5095889;28;20296;-68
2021/03/31 05:13:43;;;;;;;5.37;3.30;;;10.30;99.90;;;;;;5095764;28;20682;-69
2021/03/31 05:16:08;;;;;;;13.30;4.13;;;10.30;99.90;;;;;;5095684;28;20195;-68
2021/03/31 05:18:34;;;;;;;6.33;3.57;;;10.30;99.90;;;;;;5095286;28;20167;-68
2021/03/31 05:20:59;;;;;;;7.37;3.83;;;10.40;99.90;;;;;;5095391;28;20174;-68
2021/03/31 05:23:25;;;;;;;8.17;4.57;;;10.50;99.90;;;;;;5095245;28;20187;-68
2021/03/31 05:25:50;;;;;;;7.13;3.70;;;10.50;99.90;;;;;;5095296;28;20167;-68
2021/03/31 05:28:16;;;;;;;5.23;3.20;;;10.50;99.90;;;;;;5094912;28;20164;-68
2021/03/31 05:30:41;;;;;;;13.20;3.70;;;10.50;99.90;;;;;;5094805;28;20159;-68
2021/03/31 05:33:07;;;;;;;5.00;3.10;;;10.40;99.90;;;;;;5095245;28;20187;-68
2021/03/31 05:35:32;;;;;;;6.13;3.10;;;10.40;99.90;;;;;;5094865;28;20215;-68
2021/03/31 05:37:58;;;;;;;8.63;4.03;;;10.50;99.90;;;;;;5094658;28;20199;-70
2021/03/31 05:40:24;;;;;;;15.93;5.63;;;10.60;99.90;;;;;;5094880;28;20171;-68
2021/03/31 05:42:50;;;;;;;13.43;4.90;;;10.70;99.90;;;;;;5099969;28;20171;-68
2021/03/31 05:45:16;;;;;;;11.50;5.00;;;10.50;99.90;;;;;;5108836;28;20402;-69
2021/03/31 05:47:45;;;;;;;14.20;5.33;;;10.50;99.90;;;;;;5094738;28;20428;-68
2021/03/31 05:50:17;;;;;;;9.53;4.43;;;10.50;99.90;;;;;;5094738;28;20167;-70
2021/03/31 05:52:46;;;;;;;7.80;5.13;;;10.70;99.90;;;;;;5094441;28;20429;-69
2021/03/31 05:55:14;;;;;;;7.73;3.43;;;10.80;99.90;;;;;;5095002;28;20929;-63
2021/03/31 05:57:40;;;;;;;8.40;3.90;;;10.70;99.90;;;;;;5094473;28;20502;-69
2021/03/31 06:00:15;;;;;;;6.30;3.90;;;10.90;99.90;;;;;;5094517;28;20398;-68
2021/03/31 06:02:42;;;;;;;7.30;3.57;;;10.90;99.90;;;;;;5094251;28;20431;-63
2021/03/31 06:05:09;;;;;;;7.10;3.60;;;11.00;99.90;;;;;;5094639;28;20697;-69
2021/03/31 06:07:34;;;;;;;8.70;4.03;;;10.90;99.90;;;;;;5094061;28;20482;-68
2021/03/31 06:10:03;;;;;;;10.80;4.87;;;10.90;99.90;;;;;;5094558;28;20393;-69
2021/03/31 06:12:29;;;;;;;16.43;5.30;;;11.00;99.90;;;;;;5094352;28;20203;-70
2021/03/31 06:14:55;;;;;;;10.93;5.03;;;11.30;99.90;;;;;;5094460;28;20401;-71
2021/03/31 06:17:20;;;;;;;9.70;4.03;;;11.40;99.90;;;;;;5094232;28;20191;-71
2021/03/31 06:19:46;;;;;;;6.37;3.47;;;11.30;99.90;;;;;;5093834;28;20175;-72
2021/03/31 06:25:06;;;;;;;6.80;4.67;;;11.60;99.90;;;;;;5094657;28;20174;-71
2021/03/31 06:27:33;;;;;;;9.03;3.77;;;11.60;99.90;;;;;;5094023;28;20511;-70
2021/03/31 06:30:05;;;;;;;8.50;4.23;;;11.70;99.90;;;;;;5094219;28;20488;-71
2021/03/31 06:32:36;;;;;;;12.00;7.70;;;14.60;99.90;;;;;;5093940;28;20417;-71
2021/03/31 06:35:02;;;;;;;11.90;4.50;;;13.00;99.90;;;;;;5093666;28;20398;-71
2021/03/31 06:37:30;;;;;;;9.17;3.70;;;12.40;99.90;;;;;;5092839;28;20810;-68
2021/03/31 06:39:56;;;;;;;6.40;4.50;;;13.00;99.90;;;;;;5093960;28;20402;-71
2021/03/31 06:42:38;;;;;;;6.40;4.60;;;12.50;99.90;;;;;;5093672;28;20448;-71
2021/03/31 06:45:13;;;;;;;6.40;4.77;;;12.50;99.90;;;;;;5094561;28;20484;-71
2021/03/31 06:50:12;;;;;;;8.20;4.70;;;12.60;99.90;;;;;;5093553;28;20407;-71
2021/03/31 06:52:58;;;;;;;8.63;5.10;;;12.80;99.90;;;;;;5093136;28;20432;-71
2021/03/31 06:55:25;;;;;;;13.90;5.60;;;13.00;99.90;;;;;;5093273;28;20942;-70
2021/03/31 06:57:53;;;;;;;8.60;5.37;;;13.10;99.90;;;;;;5093425;28;20534;-69
2021/03/31 07:00:26;;;;;;;11.67;4.83;;;13.20;99.90;;;;;;5092798;28;20418;-70
2021/03/31 07:02:53;;;;;;;12.00;6.27;;;13.30;99.90;;;;;;5093128;28;20468;-70
2021/03/31 07:05:20;;;;;;;10.50;4.80;;;13.50;99.90;;;;;;5093245;28;20837;-70
2021/03/31 07:07:45;;;;;;;18.53;6.70;;;13.60;99.90;;;;;;5092774;28;20524;-70
2021/03/31 07:10:12;;;;;;;11.80;5.30;;;13.70;99.90;;;;;;5092965;28;20418;-70
2021/03/31 07:12:46;;;;;;;19.50;6.33;;;13.90;99.90;;;;;;5092970;28;20212;-70
2021/03/31 07:15:15;;;;;;;11.60;5.50;;;14.10;99.90;;;;;;5093202;28;20391;-71
2021/03/31 07:17:42;;;;;;;10.10;5.10;;;14.10;99.90;;;;;;5093115;28;20949;-70
2021/03/31 07:20:09;;;;;;;13.93;5.77;;;14.30;99.90;;;;;;5093010;28;20440;-70
2021/03/31 07:22:35;;;;;;;10.93;5.57;;;14.60;99.90;;;;;;5092964;28;20920;-70
2021/03/31 07:25:01;;;;;;;15.27;7.93;;;14.70;99.90;;;;;;5093315;28;20457;-70
2021/03/31 07:27:28;;;;;;;13.07;6.00;;;14.80;99.90;;;;;;5093050;28;20174;-70
2021/03/31 07:30:08;;;;;;;10.90;5.73;;;15.00;99.90;;;;;;5093003;28;20416;-70
2021/03/31 07:33:01;;;;;;;16.37;5.43;;;15.20;99.90;;;;;;5093370;28;20519;-70
2021/03/31 07:35:30;;;;;;;12.80;5.37;;;15.40;99.90;;;;;;5093351;28;20386;-69
2021/03/31 07:38:03;;;;;;;17.57;6.80;;;15.60;99.90;;;;;;5092313;28;20452;-71
2021/03/31 07:40:35;;;;;;;10.33;5.27;;;15.70;99.90;;;;;;5093302;28;20413;-72
2021/03/31 07:43:16;;;;;;;10.47;6.03;;;15.80;99.90;;;;;;5093410;28;20421;-71
2021/03/31 07:45:48;;;;;;;13.57;6.77;;;16.00;99.90;;;;;;5092883;28;20401;-72
2021/03/31 07:48:15;;;;;;;11.47;5.93;;;16.10;99.90;;;;;;5092891;28;20427;-70
2021/03/31 07:50:41;;;;;;;9.60;6.27;;;16.20;99.90;;;;;;5092855;28;20438;-71
2021/03/31 07:53:07;;;;;;;10.73;6.63;;;16.40;99.90;;;;;;5092408;28;20438;-71
2021/03/31 07:55:35;;;;;;;10.87;6.70;;;16.50;99.90;;;;;;5092650;28;20779;-71
2021/03/31 07:58:31;;;;;;;15.33;6.37;;;16.70;99.90;;;;;;5092584;28;20196;-72
2021/03/31 08:01:01;;;;;;;11.90;7.00;;;16.80;99.90;;;;;;5090627;28;20463;-71
2021/03/31 08:03:32;;;;;;;14.53;6.53;;;16.90;99.90;;;;;;5092596;28;20427;-72
2021/03/31 08:06:01;;;;;;;11.43;6.77;;;17.10;99.90;;;;;;5092684;28;20418;-71
2021/03/31 08:08:27;;;;;;;9.70;6.80;;;17.10;99.90;;;;;;5091941;28;20422;-71
2021/03/31 08:10:53;;;;;;;10.53;6.03;;;17.30;99.90;;;;;;5092233;28;20406;-71
2021/03/31 08:13:34;;;;;;;11.57;6.70;;;17.50;99.90;;;;;;5092295;28;20791;-71
2021/03/31 08:16:20;;;;;;;18.03;7.63;;;17.70;99.90;;;;;;5092362;28;20383;-71
2021/03/31 08:18:46;;;;;;;14.60;7.43;;;17.70;99.90;;;;;;5092401;28;20486;-71
2021/03/31 08:21:26;;;;;;;16.20;6.80;;;17.80;99.90;;;;;;5091887;28;20486;-71
2021/03/31 08:23:55;;;;;;;10.20;7.00;;;18.10;99.90;;;;;;5092136;28;20950;-71
2021/03/31 08:26:35;;;;;;;10.57;6.10;;;18.10;99.90;;;;;;5092137;28;20497;-70
2021/03/31 08:29:08;;;;;;;11.47;7.30;;;18.30;99.90;;;;;;5092719;28;20877;-71
2021/03/31 08:31:39;;;;;;;10.50;7.47;;;18.40;99.90;;;;;;5091877;28;20436;-71
2021/03/31 08:34:05;;;;;;;18.70;7.03;;;18.50;99.90;;;;;;5091869;28;20430;-71
2021/03/31 08:36:32;;;;;;;21.57;7.47;;;18.70;99.90;;;;;;5091994;28;20448;-71
2021/03/31 08:38:59;;;;;;;11.23;6.70;;;18.80;99.90;;;;;;5091875;28;20401;-71
2021/03/31 08:41:28;;;;;;;9.40;6.03;;;19.00;99.90;;;;;;5090457;28;20437;-71
2021/03/31 08:44:20;;;;;;;12.70;6.80;;;19.00;99.90;;;;;;5092028;28;20421;-71
2021/03/31 08:46:46;;;;;;;17.80;7.50;;;19.10;99.90;;;;;;5092051;28;20382;-69
2021/03/31 08:49:27;;;;;;;12.10;6.33;;;19.10;99.90;;;;;;5093065;28;20450;-72
2021/03/31 08:51:56;;;;;;;13.30;7.73;;;19.20;99.90;;;;;;5095517;28;20175;-71
2021/03/31 08:54:49;;;;;;;18.30;7.90;;;19.20;99.90;;;;;;5095280;28;20973;-71
2021/03/31 08:57:16;;;;;;;14.50;7.80;;;19.40;99.90;;;;;;5095477;28;20511;-69
2021/03/31 08:59:44;;;;;;;12.77;7.10;;;19.50;99.90;;;;;;5095892;28;20479;-71
2021/03/31 09:02:10;;;;;;;16.60;7.67;;;19.70;99.90;;;;;;5095270;28;20422;-71
2021/03/31 09:04:36;;;;;;;13.70;7.37;;;19.80;99.90;;;;;;5095669;28;20394;-71
2021/03/31 09:07:10;;;;;;;10.23;6.30;;;19.90;99.90;;;;;;5095417;28;20421;-71
2021/03/31 09:09:40;;;;;;;13.97;8.27;;;20.20;99.90;;;;;;5095317;28;20440;-71
2021/03/31 09:12:08;;;;;;;15.37;8.00;;;20.30;99.90;;;;;;5095016;28;20416;-70
2021/03/31 09:14:36;;;;;;;13.37;7.30;;;20.40;99.90;;;;;;5095449;28;20414;-71
2021/03/31 09:17:04;;;;;;;13.97;6.50;;;20.60;99.90;;;;;;5095149;28;20449;-70
2021/03/31 09:19:33;;;;;;;9.97;7.07;;;20.60;99.90;;;;;;5095460;28;20464;-69
2021/03/31 09:22:06;;;;;;;13.00;7.30;;;20.80;99.90;;;;;;5095081;28;20413;-70
2021/03/31 09:24:32;;;;;;;17.90;7.70;;;20.90;99.90;;;;;;5095568;28;20427;-70
2021/03/31 09:26:59;;;;;;;11.13;6.63;;;21.10;99.90;;;;;;5095111;28;20425;-69
2021/03/31 09:29:25;;;;;;;11.40;7.63;;;21.20;99.90;;;;;;5095114;28;20247;-71
2021/03/31 09:31:52;;;;;;;15.27;6.93;;;21.10;99.90;;;;;;5095029;28;20404;-71
2021/03/31 09:34:18;;;;;;;18.23;8.93;;;21.10;99.90;;;;;;5095009;28;20436;-71
2021/03/31 09:37:03;;;;;;;12.70;9.43;;;21.40;99.90;;;;;;5093714;28;20484;-71
2021/03/31 09:39:48;;;;;;;10.43;6.50;;;21.60;99.90;;;;;;5094878;28;20754;-70
2021/03/31 09:42:24;;;;;;;13.70;7.70;;;21.80;99.90;;;;;;5094752;28;20465;-71
2021/03/31 09:44:51;;;;;;;14.60;8.30;;;21.80;99.90;;;;;;5095008;28;20475;-70
2021/03/31 09:47:19;;;;;;;11.10;7.17;;;21.80;99.90;;;;;;5095105;28;20405;-71
2021/03/31 09:49:47;;;;;;;11.53;6.93;;;22.00;99.90;;;;;;5094915;28;20771;-71
2021/03/31 09:52:13;;;;;;;10.53;6.60;;;22.00;99.90;;;;;;5094714;28;20504;-71
2021/03/31 09:54:45;;;;;;;10.20;6.30;;;22.20;99.90;;;;;;5094890;28;20468;-71
2021/03/31 09:57:12;;;;;;;11.47;7.10;;;22.30;99.90;;;;;;5095002;28;20190;-71
2021/03/31 09:59:40;;;;;;;10.53;6.70;;;22.70;99.90;;;;;;5094366;28;20398;-71
2021/03/31 10:02:06;;;;;;;12.20;7.87;;;22.60;99.90;;;;;;5093864;28;20501;-71
2021/03/31 10:04:36;;;;;;;7.73;5.80;;;22.90;99.90;;;;;;5094256;28;20398;-72
2021/03/31 10:07:12;;;;;;;10.53;6.90;;;23.10;99.90;;;;;;5094162;28;20481;-71
2021/03/31 10:09:46;;;;;;;9.20;7.27;;;23.00;99.90;;;;;;5094139;28;20960;-71
2021/03/31 10:12:36;;;;;;;21.23;7.13;;;23.30;99.90;;;;;;5094441;28;20837;-71
2021/03/31 10:15:11;;;;;;;12.90;6.37;;;23.50;99.90;;;;;;5094929;28;20386;-72
2021/03/31 10:17:37;;;;;;;9.97;5.87;;;23.20;99.90;;;;;;5094622;28;20452;-71
2021/03/31 10:20:09;;;;;;;9.03;6.10;;;23.70;99.90;;;;;;5093827;28;20411;-72
2021/03/31 10:22:35;;;;;;;11.30;6.00;;;23.90;99.90;;;;;;5093775;28;20427;-71
2021/03/31 10:25:00;;;;;;;8.20;6.03;;;23.90;99.90;;;;;;5094122;28;20900;-80
2021/03/31 10:27:45;;;;;;;9.10;6.53;;;24.10;99.90;;;;;;5094262;28;20194;-71
2021/03/31 10:30:32;;;;;;;9.30;5.80;;;24.00;99.90;;;;;;5092504;28;20178;-71
2021/03/31 10:32:58;;;;;;;12.10;6.20;;;24.10;99.90;;;;;;5093996;28;20466;-72
2021/03/31 10:35:40;;;;;;;12.93;7.77;;;24.50;99.90;;;;;;5094104;28;20422;-72
2021/03/31 10:38:08;;;;;;;12.93;7.07;;;24.70;99.90;;;;;;5094310;28;20471;-71
2021/03/31 10:48:30;;;;;;;8.93;6.57;;;25.00;99.90;;;;;;5093430;28;20385;-69
2021/03/31 10:51:22;;;;;;;10.30;6.43;;;25.00;99.90;;;;;;5093314;28;20382;-71
2021/03/31 10:53:57;;;;;;;12.50;6.83;;;25.00;99.90;;;;;;5093193;28;20429;-71
2021/03/31 10:56:22;;;;;;;11.70;7.20;;;25.20;99.90;;;;;;5093122;28;20433;-71
2021/03/31 10:58:48;;;;;;;9.87;6.53;;;25.50;99.90;;;;;;5092879;28;20535;-71
2021/03/31 11:01:14;;;;;;;9.97;6.43;;;25.50;99.90;;;;;;5092697;28;20187;-70
2021/03/31 11:03:40;;;;;;;10.43;5.83;;;25.60;99.90;;;;;;5092697;28;20184;-72
2021/03/31 11:06:07;;;;;;;13.20;5.67;;;25.50;99.90;;;;;;5093145;28;20163;-71
2021/03/31 11:08:33;;;;;;;6.97;4.90;;;25.60;99.90;;;;;;5092873;28;20652;-71
2021/03/31 11:10:58;;;;;;;9.90;6.03;;;25.60;99.90;;;;;;5093123;28;20412;-71
2021/03/31 11:13:24;;;;;;;13.13;5.60;;;26.00;99.90;;;;;;5093106;28;20218;-71
2021/03/31 11:15:52;;;;;;;8.50;6.40;;;26.10;99.90;;;;;;5092919;28;20171;-71
2021/03/31 11:18:24;;;;;;;9.30;6.53;;;26.50;99.90;;;;;;5092903;28;20211;-70
2021/03/31 11:25:59;;;;;;;7.27;5.57;;;26.80;99.90;;;;;;5092883;28;20236;-71
2021/03/31 11:28:26;;;;;;;9.10;5.30;;;26.60;99.90;;;;;;5092926;28;20418;-71
2021/03/31 11:30:53;;;;;;;8.00;5.60;;;27.00;99.90;;;;;;5093076;28;20474;-70
2021/03/31 11:33:21;;;;;;;11.80;5.70;;;27.20;99.90;;;;;;5092615;28;20487;-71
2021/03/31 11:35:47;;;;;;;9.13;5.17;;;27.20;99.90;;;;;;5092583;28;20726;-70
2021/03/31 11:38:14;;;;;;;7.57;5.53;;;27.00;99.90;;;;;;5092726;28;20453;-71
2021/03/31 11:40:39;;;;;;;9.80;5.60;;;27.30;99.90;;;;;;5092469;28;20409;-71
2021/03/31 11:43:07;;;;;;;15.00;6.23;;;27.50;99.90;;;;;;5092340;28;20417;-71
2021/03/31 11:45:33;;;;;;;8.77;5.60;;;27.60;99.90;;;;;;5092547;28;20167;-71
2021/03/31 11:47:59;;;;;;;8.57;5.33;;;27.90;99.90;;;;;;5092506;28;20530;-70
2021/03/31 11:50:25;;;;;;;6.43;4.33;;;28.00;99.90;;;;;;5092349;28;20504;-71
2021/03/31 11:52:55;;;;;;;9.70;4.80;;;28.10;99.90;;;;;;5092464;28;20207;-70
2021/03/31 11:55:21;;;;;;;9.40;5.10;;;28.00;99.90;;;;;;5093212;28;20413;-70
2021/03/31 11:57:47;;;;;;;11.03;5.17;;;27.40;99.90;;;;;;5092800;28;20453;-67
2021/03/31 12:00:14;;;;;;;5.07;4.57;;;28.00;99.90;;;;;;5092344;28;20432;-71
2021/03/31 12:02:39;;;;;;;6.43;4.97;;;28.30;99.90;;;;;;5092249;28;20425;-70
2021/03/31 12:05:05;;;;;;;8.43;5.27;;;28.10;99.90;;;;;;5092389;28;20398;-70
2021/03/31 12:07:31;;;;;;;10.17;3.87;;;28.30;99.90;;;;;;5093633;28;20292;-71
2021/03/31 12:09:57;;;;;;;10.73;5.07;;;28.60;99.90;;;;;;5092485;28;20394;-70
2021/03/31 12:12:22;;;;;;;6.33;3.90;;;28.50;99.90;;;;;;5091019;28;20612;-72
2021/03/31 12:14:48;;;;;;;6.00;4.10;;;28.60;99.90;;;;;;5093078;28;20171;-72
2021/03/31 12:17:13;;;;;;;9.83;4.90;;;28.90;99.90;;;;;;5092803;28;20573;-71
2021/03/31 12:19:39;;;;;;;8.13;5.37;;;28.70;99.90;;;;;;5092383;28;20203;-71
2021/03/31 12:22:04;;;;;;;6.10;3.97;;;28.50;99.90;;;;;;5092560;28;20175;-71
2021/03/31 12:24:30;;;;;;;10.30;4.40;;;29.10;99.90;;;;;;5093474;28;20600;-69
2021/03/31 12:27:08;;;;;;;7.80;4.47;;;29.60;99.90;;;;;;5096099;28;20214;-70
2021/03/31 12:29:33;;;;;;;6.93;5.53;;;29.50;99.90;;;;;;5096290;28;20183;-70
2021/03/31 12:31:59;;;;;;;7.97;4.40;;;28.80;99.90;;;;;;5096116;28;20405;-71
2021/03/31 12:34:28;;;;;;;5.87;4.00;;;29.00;99.90;;;;;;5096251;28;20179;-70
2021/03/31 12:36:54;;;;;;;4.00;3.43;;;29.30;99.90;;;;;;5096402;28;20195;-70
2021/03/31 12:39:19;;;;;;;6.30;4.80;;;29.50;99.90;;;;;;5095949;28;20482;-71
2021/03/31 12:41:45;;;;;;;9.17;3.60;;;29.80;99.90;;;;;;5095969;28;20641;-71
2021/03/31 12:44:11;;;;;;;6.97;4.00;;;29.80;99.90;;;;;;5095967;28;20191;-71
2021/03/31 12:46:36;;;;;;;8.40;4.10;;;29.90;99.90;;;;;;5095971;28;20197;-72
2021/03/31 12:49:02;;;;;;;6.87;3.83;;;30.10;99.90;;;;;;5096327;28;20239;-72
2021/03/31 12:51:36;;;;;;;4.20;2.97;;;29.50;99.90;;;;;;5095897;28;20232;-71
2021/03/31 12:56:28;;;;;;;6.20;3.83;;;30.60;99.90;;;;;;5096082;28;20457;-71
2021/03/31 12:58:54;;;;;;;8.53;4.00;;;30.10;99.90;;;;;;5095595;28;20428;-71
2021/03/31 13:01:23;;;;;;;11.60;3.80;;;30.00;99.90;;;;;;5095772;28;20563;-71
2021/03/31 13:03:49;;;;;;;7.33;3.10;;;30.60;99.90;;;;;;5094177;28;20192;-70
2021/03/31 13:06:15;;;;;;;6.17;3.80;;;30.70;99.90;;;;;;5095667;28;20405;-70
2021/03/31 13:08:41;;;;;;;4.17;3.40;;;31.10;99.90;;;;;;5094922;28;20436;-69
2021/03/31 13:11:06;;;;;;;7.60;2.90;;;31.30;99.90;;;;;;5095370;28;20224;-72
2021/03/31 13:26:41;;;;;;;5.93;3.13;;;31.20;99.90;;;;;;5095369;28;20412;-70